
Distance (Route):
Temperature : -50.7°C
Humidity : 0.6%
Pressure : -1.0hPa| Receiver | Date | Latitude | Longitude | Direction | Speed | Altitude | Climb | Temperature | Humidity | Pressure | Voltage | Killtimer | Uptime | BKT | XDATA |
|---|---|---|---|---|---|---|---|---|---|---|---|---|---|---|---|
| DJ2DS-15 | 2026-08-31 00:52:33 | 53.29575 | -0.83198 | 59° | 13km/h | 20303m | -20.5m/s | -50.7°C | 0.6% | -1.0hPa | 2.5V | 00:00:00 | 00:00:00 | 00:00:00 | |
| DJ2DS-15 | 2026-08-31 00:51:56 | 53.29494 | -0.83352 | 55° | 29km/h | 20705m | -21.8m/s | -51.0°C | 0.6% | -1.0hPa | 2.5V | 00:00:00 | 00:00:00 | 00:00:00 | |
| DJ2DS-15 | 2026-08-31 00:51:30 | 53.29476 | -0.83517 | 352° | 16km/h | 21282m | -22.9m/s | -51.3°C | 3.3% | 0hPa | 2.5V | 00:00:00 | 02:01:15 | 00:00:00 | |
| DJ2DS-15 | 2026-08-31 00:51:05 | 53.29386 | -0.83536 | 8° | 18km/h | 21859m | -24.2m/s | -51.3°C | 3.3% | 0hPa | 2.6V | 00:00:00 | 02:00:50 | 00:00:00 | |
| DJ2DS-15 | 2026-08-31 00:50:45 | 53.29334 | -0.83584 | 148° | 13km/h | 22359m | -24.6m/s | -51.4°C | 0.5% | -1.0hPa | 2.6V | 00:00:00 | 00:00:00 | 00:00:00 | |
| DJ2DS-15 | 2026-08-31 00:50:24 | 53.29322 | -0.83611 | 48° | 16km/h | 22865m | -26.5m/s | -52.3°C | 3.6% | 0hPa | 2.6V | 08:28:00 | 02:00:09 | 00:00:00 | |
| DJ2DS-15 | 2026-08-31 00:50:04 | 53.29299 | -0.83728 | 63° | 9km/h | 23390m | -26.1m/s | -51.0°C | 3.4% | 0hPa | 2.5V | 00:00:00 | 01:59:49 | 00:00:00 | |
| DJ2DS-15 | 2026-08-31 00:49:44 | 53.29262 | -0.83713 | 54° | 7km/h | 23935m | -27.8m/s | -49.5°C | 3.0% | 0hPa | 2.5V | 00:00:00 | 01:59:29 | 00:00:00 | |
| DJ2DS-15 | 2026-08-31 00:49:32 | 53.29243 | -0.83726 | 3° | 7km/h | 24305m | -29.6m/s | -50.1°C | 0.4% | -1.0hPa | 2.5V | 00:00:00 | 00:00:00 | 00:00:00 | |
| DJ2DS-15 | 2026-08-31 00:49:24 | 53.29225 | -0.83731 | 32° | 7km/h | 24518m | -30.5m/s | -49.5°C | 3.1% | 0hPa | 2.5V | 00:00:00 | 01:59:09 | 00:00:00 | |
| DJ2DS-15 | 2026-08-31 00:49:04 | 53.29201 | -0.83774 | 75° | 5km/h | 25315m | -48.4m/s | -49.6°C | 3.0% | 0hPa | 2.6V | 00:00:00 | 01:58:49 | 00:00:00 | |
| DJ2DS-15 | 2026-08-31 00:48:44 | 53.29195 | -0.83744 | 315° | 5km/h | 26277m | -51.2m/s | -50.4°C | 3.2% | 0hPa | 2.6V | 00:00:00 | 01:58:29 | 00:00:00 | |
| DB0UT-7 | 2026-08-31 00:48:38 | 53.29184 | -0.83726 | 307° | 7km/h | 26579m | -50.8m/s | -51.0°C | 3.4% | 0hPa | 2.6V | 00:00:00 | 00:00:00 | 00:00:00 | |
| DJ2DS-15 | 2026-08-31 00:48:24 | 53.29173 | -0.83710 | 342° | 11km/h | 27310m | -53.4m/s | -50.2°C | 3.4% | 0hPa | 2.6V | 00:00:00 | 01:58:09 | 00:00:00 | |
| DB0UT-7 | 2026-08-31 00:48:08 | 53.29172 | -0.83678 | 245° | 24km/h | 28140m | -48.3m/s | -48.3°C | 2.7% | 0hPa | 2.5V | 00:00:00 | 01:57:53 | 00:00:00 | |
| DJ2DS-15 | 2026-08-31 00:48:04 | 53.29177 | -0.83649 | 263° | 18km/h | 28323m | -41.0m/s | -48.6°C | 2.8% | 0hPa | 2.5V | 00:00:00 | 01:57:49 | 00:00:00 | |
| DJ2DS-15 | 2026-08-31 00:47:44 | 53.29156 | -0.83526 | 183° | 5km/h | 28445m | 5.6m/s | -48.7°C | 0.4% | -1.0hPa | 2.5V | 00:00:00 | 00:00:00 | 00:00:00 | |
| DJ2DS-15 | 2026-08-31 00:47:24 | 53.29184 | -0.83408 | 245° | 24km/h | 28335m | 5.8m/s | -49.1°C | 3.1% | 0hPa | 2.5V | 00:00:00 | 01:57:09 | 08:30:00 | |
| DB0UT-7 | 2026-08-31 00:47:05 | 53.29246 | -0.83272 | 242° | 20km/h | 28220m | 5.4m/s | -48.8°C | 2.9% | 0hPa | 2.5V | 00:00:00 | 00:00:00 | 00:00:00 | |
| DJ2DS-15 | 2026-08-31 00:47:04 | 53.29249 | -0.83264 | 238° | 20km/h | 28214m | 5.5m/s | -48.8°C | 2.9% | 0hPa | 2.6V | 00:00:00 | 01:56:49 | 00:00:00 | |
| DJ2DS-15 | 2026-08-31 00:46:44 | 53.29329 | -0.83207 | 165° | 16km/h | 28093m | 6.5m/s | -49.2°C | 3.0% | 0hPa | 2.6V | 00:00:00 | 01:56:29 | 00:00:00 | |
| DB0UT-7 | 2026-08-31 00:46:35 | 53.29359 | -0.83175 | 176° | 11km/h | 28040m | 5.3m/s | -49.2°C | 3.1% | 0hPa | 2.6V | 00:00:00 | 01:56:20 | 00:00:00 | |
| DJ2DS-15 | 2026-08-31 00:46:31 | 53.29377 | -0.83191 | 122° | 16km/h | 28017m | 5.5m/s | -49.2°C | 0.4% | -1.0hPa | 2.6V | 00:00:00 | 00:00:00 | 00:00:00 | |
| DJ2DS-15 | 2026-08-31 00:46:24 | 53.29393 | -0.83203 | 234° | 9km/h | 27976m | 7.0m/s | -49.1°C | 2.9% | 0hPa | 2.6V | 00:00:00 | 01:56:09 | 00:00:00 | |
| DB0UT-7 | 2026-08-31 00:46:05 | 53.29396 | -0.83208 | 106° | 18km/h | 27863m | 5.1m/s | -49.1°C | 3.0% | 0hPa | 2.6V | 00:00:00 | 00:00:00 | 00:00:00 | |
| DJ2DS-15 | 2026-08-31 00:46:04 | 53.29396 | -0.83214 | 98° | 15km/h | 27858m | 5.4m/s | -49.1°C | 3.0% | 0hPa | 2.6V | 00:00:00 | 01:55:49 | 00:00:00 | |
| DJ2DS-15 | 2026-08-31 00:45:55 | 53.29376 | -0.83237 | 9° | 13km/h | 27805m | 6.8m/s | -49.4°C | 0.4% | -1.0hPa | 2.6V | 00:00:00 | 00:00:00 | 00:00:00 | |
| DJ2DS-15 | 2026-08-31 00:45:42 | 53.29320 | -0.83247 | 17° | 27km/h | 27733m | 4.4m/s | -49.6°C | 3.0% | 0hPa | 2.6V | 00:00:00 | 01:55:27 | 00:00:00 | |
| DB0UT-7 | 2026-08-31 00:45:35 | 53.29280 | -0.83283 | 8° | 22km/h | 27692m | 4.6m/s | -49.8°C | 3.1% | 0hPa | 2.6V | 00:00:00 | 01:55:20 | 00:00:00 | |
| DJ2DS-15 | 2026-08-31 00:45:22 | 53.29189 | -0.83276 | 28° | 15km/h | 27619m | 6.5m/s | -49.8°C | 3.1% | 0hPa | 2.6V | 00:00:00 | 01:55:07 | 00:00:00 | |
| DJ2DS-15 | 2026-08-31 00:45:19 | 53.29178 | -0.83277 | 343° | 18km/h | 27602m | 6.5m/s | -49.9°C | 0.4% | -1.0hPa | 2.5V | 00:00:00 | 00:00:00 | 00:00:00 | |
| DB0UT-7 | 2026-08-31 00:45:05 | 53.29125 | -0.83255 | 342° | 9km/h | 27523m | 6.0m/s | -50.2°C | 3.1% | 0hPa | 2.5V | 00:00:00 | 00:00:00 | 00:00:00 | |
| DJ2DS-15 | 2026-08-31 00:44:43 | 53.29096 | -0.83194 | 305° | 7km/h | 27400m | 4.8m/s | -51.0°C | 0.5% | -1.0hPa | 2.5V | 00:00:00 | 00:00:00 | 00:00:00 | |
| DJ2DS-15 | 2026-08-31 00:44:42 | 53.29095 | -0.83192 | 302° | 7km/h | 27396m | 4.7m/s | -51.0°C | 3.3% | 0hPa | 2.5V | 00:00:00 | 01:54:27 | 00:00:00 | |
| DB0UT-7 | 2026-08-31 00:44:35 | 53.29093 | -0.83176 | 294° | 9km/h | 27358m | 4.7m/s | -51.0°C | 3.4% | 0hPa | 2.5V | 00:00:00 | 01:54:20 | 00:00:00 | |
| DJ2DS-15 | 2026-08-31 00:44:22 | 53.29107 | -0.83134 | 246° | 11km/h | 27287m | 5.0m/s | -50.9°C | 3.3% | 0hPa | 2.5V | 00:00:00 | 01:54:07 | 08:30:00 | |
| DB0UT-7 | 2026-08-31 00:44:05 | 53.29145 | -0.83108 | 212° | 5km/h | 27194m | 6.4m/s | -51.2°C | 3.4% | 0hPa | 2.5V | 00:00:00 | 00:00:00 | 08:30:00 | |
| DJ2DS-15 | 2026-08-31 00:44:02 | 53.29152 | -0.83104 | 187° | 4km/h | 27177m | 6.5m/s | -51.3°C | 3.3% | 0hPa | 2.5V | 00:00:00 | 01:53:47 | 00:00:00 | |
| DJ2DS-15 | 2026-08-31 00:43:42 | 53.29153 | -0.83120 | 14° | 7km/h | 27063m | 5.2m/s | -51.5°C | 3.4% | 0hPa | 2.5V | 00:00:00 | 01:53:27 | 00:00:00 | |
| DB0UT-7 | 2026-08-31 00:43:35 | 53.29141 | -0.83118 | 242° | 9km/h | 27021m | 6.1m/s | -51.5°C | 3.4% | 0hPa | 2.5V | 00:00:00 | 01:53:20 | 00:00:00 | |
| DJ2DS-15 | 2026-08-31 00:43:22 | 53.29124 | -0.83098 | 300° | 9km/h | 26944m | 5.0m/s | -51.6°C | 3.4% | 0hPa | 2.5V | 00:00:00 | 01:53:07 | 00:00:00 | |
| DB0UT-7 | 2026-08-31 00:43:05 | 53.29105 | -0.83045 | 305° | 11km/h | 26844m | 6.8m/s | -51.6°C | 3.4% | 0hPa | 2.5V | 00:00:00 | 00:00:00 | 00:00:00 | |
| DJ2DS-15 | 2026-08-31 00:43:02 | 53.29099 | -0.83036 | 316° | 11km/h | 26826m | 6.7m/s | -51.6°C | 3.4% | 0hPa | 2.5V | 00:00:00 | 01:52:47 | 00:00:00 | |
| DJ2DS-15 | 2026-08-31 00:42:42 | 53.29073 | -0.82953 | 286° | 9km/h | 26704m | 6.6m/s | -51.6°C | 3.5% | 0hPa | 2.5V | 00:00:00 | 01:52:27 | 00:00:00 | |
| DB0UT-7 | 2026-08-31 00:42:35 | 53.29069 | -0.82923 | 260° | 11km/h | 26660m | 5.5m/s | -51.6°C | 3.4% | 0hPa | 2.5V | 00:00:00 | 01:52:20 | 00:00:00 | |
| DJ2DS-15 | 2026-08-31 00:42:22 | 53.29060 | -0.82881 | 294° | 13km/h | 26580m | 5.2m/s | -51.5°C | 3.4% | 0hPa | 2.6V | 00:00:00 | 01:52:07 | 00:00:00 | |
| DB0UT-7 | 2026-08-31 00:42:05 | 53.29043 | -0.82825 | 324° | 15km/h | 26478m | 5.8m/s | -51.3°C | 3.4% | 0hPa | 2.5V | 00:00:00 | 00:00:00 | 00:00:00 | |
| DJ2DS-15 | 2026-08-31 00:42:02 | 53.29037 | -0.82819 | 301° | 13km/h | 26459m | 5.5m/s | -51.2°C | 3.4% | 0hPa | 2.5V | 00:00:00 | 01:51:47 | 00:00:00 | |
| DJ2DS-15 | 2026-08-31 00:41:42 | 53.29005 | -0.82740 | 291° | 18km/h | 26343m | 5.4m/s | -51.1°C | 3.3% | 0hPa | 2.5V | 00:00:00 | 01:51:27 | 00:00:00 | |
| DB0UT-7 | 2026-08-31 00:41:35 | 53.28988 | -0.82682 | 268° | 15km/h | 26304m | 6.3m/s | -51.1°C | 3.4% | 0hPa | 2.5V | 00:00:00 | 01:51:20 | 00:00:00 | |
| DJ2DS-15 | 2026-08-31 00:41:22 | 53.28984 | -0.82603 | 285° | 13km/h | 26231m | 6.5m/s | -50.8°C | 3.3% | 0hPa | 2.5V | 00:00:00 | 01:51:07 | 08:30:00 | |
| DJ2DS-15 | 2026-08-31 00:41:07 | 53.28999 | -0.82515 | 256° | 7km/h | 26139m | 6.7m/s | -50.7°C | 0.5% | -1.0hPa | 2.5V | 00:00:00 | 00:00:00 | 00:00:00 | |
| DB0UT-7 | 2026-08-31 00:41:05 | 53.28999 | -0.82512 | 275° | 7km/h | 26133m | 5.7m/s | 0°C | 0% | 0hPa | 2.5V | 00:00:00 | 00:00:00 | 00:00:00 | |
| DJ2DS-15 | 2026-08-31 00:40:42 | 53.29008 | -0.82452 | 276° | 7km/h | 26008m | 5.7m/s | -50.2°C | 3.2% | 0hPa | 2.5V | 00:00:00 | 01:50:27 | 00:00:00 | |
| DB0UT-7 | 2026-08-31 00:40:35 | 53.29010 | -0.82436 | 171° | 7km/h | 25970m | 4.4m/s | 0°C | 0% | 0hPa | 2.5V | 00:00:00 | 01:50:20 | 00:00:00 | |
| BIOWL1-15 | 2026-08-31 00:40:25 | 53.29026 | -0.82446 | 169° | 5km/h | 25873m | 6.1m/s | -50.9°C | 0% | 0hPa | 2.5V | 18:12:15 | 01:50:02 | 00:00:00 | |
| DJ2DS-15 | 2026-08-31 00:40:22 | 53.29018 | -0.82435 | 157° | 7km/h | 25899m | 4.8m/s | -50.7°C | 3.2% | 0hPa | 2.6V | 00:00:00 | 01:50:07 | 00:00:00 | |
| BIOWL1-15 | 2026-08-31 00:40:00 | 53.29015 | -0.82409 | 273° | 15km/h | 25782m | 5.7m/s | -51.5°C | 0% | 0hPa | 2.6V | 18:12:15 | 01:49:45 | 00:00:00 | |
| BIOWL1-15 | 2026-08-31 00:39:50 | 53.29010 | -0.82382 | 238° | 4km/h | 25729m | 5.4m/s | -51.4°C | 0% | 0hPa | 2.6V | 18:12:15 | 01:49:35 | 00:00:00 | |
| BIOWL1-15 | 2026-08-31 00:39:40 | 53.29020 | -0.82386 | 29° | 11km/h | 25660m | 5.7m/s | -51.2°C | 0% | 0hPa | 2.5V | 18:12:15 | 01:49:22 | 00:00:00 | |
| BIOWL1-15 | 2026-08-31 00:39:27 | 53.29031 | -0.82409 | 125° | 22km/h | 25608m | 4.5m/s | -51.3°C | 0% | 0hPa | 2.6V | 18:12:15 | 01:49:12 | 00:00:00 | |
| BIOWL1-15 | 2026-08-31 00:39:16 | 53.29025 | -0.82444 | 116° | 11km/h | 25547m | 6.5m/s | -51.4°C | 0% | 0hPa | 2.5V | 18:12:15 | 01:49:01 | 00:00:00 | |
| BIOWL1-15 | 2026-08-31 00:39:05 | 53.29016 | -0.82488 | 13° | 13km/h | 25479m | 5.1m/s | 0°C | 0% | 0hPa | 2.6V | 18:12:15 | 01:48:49 | 00:00:00 | |
| BIOWL1-15 | 2026-08-31 00:38:54 | 53.28999 | -0.82525 | 45° | 9km/h | 25416m | 4.7m/s | 0°C | 0% | 0hPa | 2.5V | 18:12:15 | 01:48:38 | 00:00:00 | |
| DJ2DS-15 | 2026-08-31 00:38:43 | 53.28969 | -0.82548 | 58° | 5km/h | 25351m | 4.7m/s | -50.6°C | 0.5% | -1.0hPa | 2.5V | 00:00:00 | 00:00:00 | 00:00:00 | |
| DJ2DS-15 | 2026-08-31 00:38:41 | 53.28968 | -0.82550 | 26° | 13km/h | 25346m | 5.5m/s | -50.6°C | 3.3% | 0hPa | 2.5V | 00:00:00 | 01:48:26 | 00:00:00 | |
| DJ2DS-15 | 2026-08-31 00:38:21 | 53.28910 | -0.82572 | 32° | 11km/h | 25230m | 5.9m/s | -50.1°C | 3.2% | 0hPa | 2.5V | 00:00:00 | 01:48:06 | 08:30:00 | |
| DJ2DS-15 | 2026-08-31 00:38:06 | 53.28879 | -0.82582 | 22° | 13km/h | 25140m | 5.4m/s | -49.9°C | 0.5% | -1.0hPa | 2.6V | 00:00:00 | 00:00:00 | 00:00:00 | |
| DJ2DS-15 | 2026-08-31 00:38:01 | 53.28874 | -0.82597 | 81° | 9km/h | 25110m | 5.9m/s | -49.9°C | 3.2% | 0hPa | 2.6V | 00:00:00 | 01:47:46 | 00:00:00 | |
| DJ2DS-15 | 2026-08-31 00:37:41 | 53.28841 | -0.82630 | 68° | 11km/h | 24989m | 5.7m/s | -50.0°C | 3.2% | 0hPa | 2.6V | 00:00:00 | 01:47:26 | 00:00:00 | |
| DJ2DS-15 | 2026-08-31 00:37:31 | 53.28826 | -0.82660 | 86° | 4km/h | 24921m | 5.7m/s | -50.2°C | 0.5% | -1.0hPa | 2.6V | 00:00:00 | 00:00:00 | 00:00:00 | |
| DJ2DS-15 | 2026-08-31 00:37:21 | 53.28809 | -0.82694 | 73° | 7km/h | 24868m | 5.4m/s | -50.0°C | 3.2% | 0hPa | 2.6V | 00:00:00 | 01:47:06 | 00:00:00 | |
| DJ2DS-15 | 2026-08-31 00:37:01 | 53.28801 | -0.82751 | 56° | 11km/h | 24746m | 6.4m/s | -50.1°C | 3.2% | 0hPa | 2.6V | 00:00:00 | 01:46:46 | 00:00:00 | |
| DJ2DS-15 | 2026-08-31 00:36:41 | 53.28749 | -0.82788 | 359° | 15km/h | 24626m | 5.3m/s | -50.1°C | 3.2% | 0hPa | 2.6V | 00:00:00 | 01:46:26 | 00:00:00 | |
| DJ2DS-15 | 2026-08-31 00:36:21 | 53.28673 | -0.82794 | 1° | 15km/h | 24511m | 4.8m/s | -50.2°C | 3.2% | 0hPa | 2.6V | 00:00:00 | 01:46:06 | 00:00:00 | |
| DJ2DS-15 | 2026-08-31 00:36:01 | 53.28604 | -0.82799 | 5° | 11km/h | 24398m | 5.5m/s | -50.4°C | 3.2% | 0hPa | 2.6V | 00:00:00 | 01:45:46 | 00:00:00 | |
| DJ2DS-15 | 2026-08-31 00:35:42 | 53.28565 | -0.82785 | 274° | 4km/h | 24293m | 6.2m/s | -50.3°C | 0.5% | -1.0hPa | 2.6V | 00:00:00 | 00:00:00 | 00:00:00 | |
| DJ2DS-15 | 2026-08-31 00:35:41 | 53.28564 | -0.82783 | 266° | 9km/h | 24288m | 5.0m/s | -50.2°C | 3.3% | 0hPa | 2.6V | 00:00:00 | 01:45:26 | 00:00:00 | |
| DJ2DS-15 | 2026-08-31 00:35:21 | 53.28542 | -0.82818 | 28° | 11km/h | 24187m | 5.8m/s | -49.9°C | 3.2% | 0hPa | 2.6V | 00:00:00 | 01:45:06 | 08:30:00 | |
| DJ2DS-15 | 2026-08-31 00:35:01 | 53.28519 | -0.82897 | 75° | 15km/h | 24086m | 6.1m/s | -49.8°C | 3.2% | 0hPa | 2.6V | 00:00:00 | 01:44:46 | 00:00:00 | |
| DJ2DS-15 | 2026-08-31 00:34:41 | 53.28470 | -0.82984 | 52° | 15km/h | 23982m | 3.8m/s | -50.2°C | 3.2% | 0hPa | 2.6V | 00:00:00 | 01:44:26 | 00:00:00 | |
| DJ2DS-15 | 2026-08-31 00:34:21 | 53.28400 | -0.83017 | 322° | 16km/h | 23879m | 6.2m/s | -51.0°C | 3.4% | 0hPa | 2.6V | 00:00:00 | 01:44:06 | 00:00:00 | |
| DJ2DS-15 | 2026-08-31 00:34:01 | 53.28343 | -0.82953 | 314° | 9km/h | 23776m | 4.7m/s | -51.2°C | 3.3% | 0hPa | 2.6V | 00:00:00 | 01:43:46 | 00:00:00 | |
| DJ2DS-15 | 2026-08-31 00:33:40 | 53.28318 | -0.82942 | 53° | 9km/h | 23662m | 6.2m/s | -51.9°C | 3.5% | 0hPa | 2.6V | 00:00:00 | 01:43:25 | 00:00:00 | |
| DJ2DS-15 | 2026-08-31 00:33:00 | 53.28252 | -0.82977 | 8° | 7km/h | 23432m | 6.4m/s | -52.2°C | 3.5% | 0hPa | 2.6V | 00:00:00 | 01:42:45 | 00:00:00 | |
| DJ2DS-15 | 2026-08-31 00:32:42 | 53.28236 | -0.83020 | 76° | 4km/h | 23321m | 7.0m/s | -52.3°C | -1.0% | -1.0hPa | 2.6V | 00:00:00 | 00:00:00 | 00:00:00 | |
| DJ2DS-15 | 2026-08-31 00:32:40 | 53.28236 | -0.83022 | 100° | 15km/h | 23315m | 5.7m/s | -52.3°C | 3.6% | 0hPa | 2.6V | 00:00:00 | 01:42:25 | 00:00:00 | |
| DJ2DS-15 | 2026-08-31 00:32:20 | 53.28242 | -0.83132 | 74° | 20km/h | 23198m | 6.9m/s | -52.1°C | 3.6% | 0hPa | 2.6V | 00:00:00 | 01:42:05 | 08:30:00 | |
| DJ2DS-15 | 2026-08-31 00:32:00 | 53.28218 | -0.83295 | 77° | 22km/h | 23083m | 5.5m/s | -51.6°C | 3.5% | 0hPa | 2.6V | 00:00:00 | 01:41:45 | 00:00:00 | |
| DJ2DS-15 | 2026-08-31 00:31:40 | 53.28180 | -0.83459 | 77° | 18km/h | 22972m | 5.0m/s | -51.5°C | 3.4% | 0hPa | 2.6V | 00:00:00 | 01:41:25 | 00:00:00 | |
| DJ2DS-15 | 2026-08-31 00:31:20 | 53.28114 | -0.83572 | 34° | 18km/h | 22863m | 5.4m/s | -51.6°C | 3.4% | 0hPa | 2.6V | 00:00:00 | 01:41:05 | 00:00:00 | |
| DJ2DS-15 | 2026-08-31 00:31:00 | 53.28034 | -0.83630 | 339° | 13km/h | 22756m | 5.6m/s | -52.0°C | 3.5% | 0hPa | 2.6V | 00:00:00 | 01:40:45 | 00:00:00 | |
| DJ2DS-15 | 2026-08-31 00:30:40 | 53.27981 | -0.83588 | 335° | 9km/h | 22651m | 5.8m/s | -51.9°C | 3.5% | 0hPa | 2.6V | 00:00:00 | 01:40:25 | 00:00:00 | |
| DJ2DS-15 | 2026-08-31 00:30:20 | 53.27956 | -0.83539 | 317° | 7km/h | 22551m | 4.5m/s | -51.6°C | 3.5% | 0hPa | 2.6V | 00:00:00 | 01:40:05 | 00:00:00 | |
| DJ2DS-15 | 2026-08-31 00:30:00 | 53.27967 | -0.83494 | 205° | 7km/h | 22455m | 5.2m/s | -51.2°C | 3.4% | 0hPa | 2.6V | 00:00:00 | 01:39:45 | 00:00:00 | |
| DJ2DS-15 | 2026-08-31 00:29:40 | 53.27997 | -0.83483 | 156° | 13km/h | 22362m | 4.0m/s | -51.1°C | 3.3% | 0hPa | 2.6V | 00:00:00 | 01:39:25 | 00:00:00 | |
| DJ2DS-15 | 2026-08-31 00:29:20 | 53.28028 | -0.83570 | 93° | 11km/h | 22254m | 4.3m/s | -51.1°C | 3.3% | 0hPa | 2.6V | 00:00:00 | 01:39:05 | 08:30:00 |